createdAt,value
2023-05-12T00:01:49.543Z,96522.78
2023-05-12T00:04:15.837Z,96519.00
2023-05-12T00:06:42.140Z,96514.19
2023-05-12T00:09:08.435Z,96512.84
2023-05-12T00:11:34.691Z,96519.56
2023-05-12T00:14:00.962Z,96520.34
2023-05-12T00:16:27.292Z,96516.88
2023-05-12T00:18:53.560Z,96515.25
2023-05-12T00:21:19.858Z,96507.44
2023-05-12T00:23:46.109Z,96509.06
2023-05-12T00:26:12.363Z,96507.22
2023-05-12T00:28:38.635Z,96501.84
2023-05-12T00:31:04.983Z,96499.66
2023-05-12T00:33:31.317Z,96500.19
2023-05-12T00:35:57.578Z,96495.63
2023-05-12T00:38:23.840Z,96493.22
2023-05-12T00:40:50.096Z,96496.47
2023-05-12T00:43:16.341Z,96495.91
2023-05-12T00:45:42.625Z,96491.06
2023-05-12T00:48:08.951Z,96495.63
2023-05-12T00:50:35.265Z,96485.69
2023-05-12T00:53:01.543Z,96491.84
2023-05-12T00:55:27.795Z,96489.66
2023-05-12T00:57:54.049Z,96492.09
2023-05-12T01:00:20.634Z,96485.59
2023-05-12T01:02:47.278Z,96484.56
2023-05-12T01:05:13.961Z,96487.81
2023-05-12T01:07:40.264Z,96488.88
2023-05-12T01:10:06.520Z,96480.81
2023-05-12T01:12:32.785Z,96480.84
2023-05-12T01:14:59.061Z,96479.50
2023-05-12T01:17:25.379Z,96476.81
2023-05-12T01:19:51.669Z,96476.81
2023-05-12T01:22:17.945Z,96467.19
2023-05-12T01:24:44.203Z,96476.25
2023-05-12T01:27:10.681Z,96473.03
2023-05-12T01:29:36.955Z,96481.31
2023-05-12T01:32:03.237Z,96478.41
2023-05-12T01:34:29.496Z,96475.16
2023-05-12T01:36:55.769Z,96474.91
2023-05-12T01:39:22.036Z,96479.75
2023-05-12T01:41:48.297Z,96473.31
2023-05-12T01:44:14.550Z,96471.44
2023-05-12T01:46:40.866Z,96468.13
2023-05-12T01:49:07.144Z,96468.94
2023-05-12T01:51:33.666Z,96465.19
2023-05-12T01:53:59.919Z,96466.78
2023-05-12T01:56:26.173Z,96465.66
2023-05-12T01:58:52.485Z,96465.13
2023-05-12T02:01:18.771Z,96464.41
2023-05-12T02:03:45.201Z,96458.78
2023-05-12T02:06:11.542Z,96466.06
2023-05-12T02:08:37.912Z,96457.75
2023-05-12T02:11:04.185Z,96464.47
2023-05-12T02:13:30.455Z,96457.75
2023-05-12T02:15:56.784Z,96464.47
2023-05-12T02:18:23.153Z,96456.44
2023-05-12T02:20:49.495Z,96453.75
2023-05-12T02:23:15.781Z,96451.34
2023-05-12T02:25:42.085Z,96456.72
2023-05-12T02:28:08.336Z,96454.56
2023-05-12T02:30:34.596Z,96458.88
2023-05-12T02:33:00.946Z,96457.81
2023-05-12T02:35:27.220Z,96458.06
2023-05-12T02:37:53.503Z,96457.25
2023-05-12T02:40:20.076Z,96457.78
2023-05-12T02:42:46.433Z,96461.00
2023-05-12T02:45:12.704Z,96452.16
2023-05-12T02:47:39.187Z,96454.03
2023-05-12T02:50:05.467Z,96459.38
2023-05-12T02:52:31.731Z,96452.41
2023-05-12T02:54:58.000Z,96452.41
2023-05-12T02:57:24.265Z,96452.13
2023-05-12T02:59:50.505Z,96453.16
2023-05-12T03:02:16.787Z,96444.56
2023-05-12T03:04:43.100Z,96443.78
2023-05-12T03:07:09.394Z,96442.97
2023-05-12T03:09:35.670Z,96442.91
2023-05-12T03:12:01.947Z,96440.72
2023-05-12T03:14:28.192Z,96441.03
2023-05-12T03:16:54.507Z,96439.72
2023-05-12T03:19:20.824Z,96437.84
2023-05-12T03:21:47.105Z,96447.19
2023-05-12T03:24:13.445Z,96442.63
2023-05-12T03:26:39.716Z,96437.25
2023-05-12T03:29:05.986Z,96448.47
2023-05-12T03:31:32.299Z,96447.69
2023-05-12T03:33:58.569Z,96439.13
2023-05-12T03:36:24.861Z,96430.31
2023-05-12T03:38:51.120Z,96438.88
2023-05-12T03:41:17.397Z,96436.94
2023-05-12T03:43:43.672Z,96429.75
2023-05-12T03:46:09.973Z,96435.13
2023-05-12T03:48:36.265Z,96421.75
2023-05-12T03:51:02.512Z,96423.59
2023-05-12T03:53:28.769Z,96428.97
2023-05-12T03:55:55.016Z,96419.63
2023-05-12T03:58:21.283Z,96416.41
2023-05-12T04:00:47.545Z,96422.03
2023-05-12T04:03:13.861Z,96424.72
2023-05-12T04:05:40.201Z,96429.00
2023-05-12T04:08:06.447Z,96419.88
2023-05-12T04:10:32.762Z,96416.91
2023-05-12T04:12:59.023Z,96417.47
2023-05-12T04:15:25.550Z,96413.44
2023-05-12T04:17:51.817Z,96422.28
2023-05-12T04:20:18.270Z,96415.00
2023-05-12T04:22:44.645Z,96418.50
2023-05-12T04:25:10.940Z,96416.63
2023-05-12T04:27:37.205Z,96418.44
2023-05-12T04:30:03.457Z,96419.22
2023-05-12T04:32:29.756Z,96420.06
2023-05-12T04:34:56.087Z,96427.84
2023-05-12T04:37:22.353Z,96431.03
2023-05-12T04:39:48.608Z,96425.59
2023-05-12T04:42:14.894Z,96437.44
2023-05-12T04:44:41.161Z,96432.69
2023-05-12T04:47:07.424Z,96433.22
2023-05-12T04:49:33.709Z,96441.53
2023-05-12T04:52:00.187Z,96438.31
2023-05-12T04:54:26.491Z,96436.63
2023-05-12T04:56:52.758Z,96436.13
2023-05-12T04:59:19.022Z,96443.91
2023-05-12T05:01:45.400Z,96437.16
2023-05-12T05:04:11.828Z,96445.97
2023-05-12T05:06:38.087Z,96444.13
2023-05-12T05:09:04.349Z,96437.69
2023-05-12T05:11:30.614Z,96449.28
2023-05-12T05:13:56.892Z,96454.03
2023-05-12T05:16:23.212Z,96446.78
2023-05-12T05:18:49.613Z,96447.59
2023-05-12T05:21:15.975Z,96444.97
2023-05-12T05:23:42.250Z,96447.69
2023-05-12T05:26:08.745Z,96449.06
2023-05-12T05:28:35.025Z,96446.63
2023-05-12T05:31:01.310Z,96445.28
2023-05-12T05:33:27.576Z,96445.00
2023-05-12T05:35:53.832Z,96453.84
2023-05-12T05:38:20.091Z,96445.59
2023-05-12T05:40:53.643Z,96449.63
2023-05-12T05:43:20.673Z,96453.31
2023-05-12T05:45:46.940Z,96456.78
2023-05-12T05:48:13.203Z,96451.44
2023-05-12T05:50:39.472Z,96464.03
2023-05-12T05:53:05.896Z,96459.28
2023-05-12T05:55:32.152Z,96457.13
2023-05-12T05:57:58.407Z,96449.69
2023-05-12T06:00:24.659Z,96457.97
2023-05-12T06:02:51.035Z,96457.97
2023-05-12T06:05:17.468Z,96456.41
2023-05-12T06:07:43.862Z,96457.53
2023-05-12T06:10:10.133Z,96460.47
2023-05-12T06:12:36.415Z,96458.59
2023-05-12T06:15:02.714Z,96457.78
2023-05-12T06:17:30.312Z,96455.13
2023-05-12T06:19:58.264Z,96453.22
2023-05-12T06:22:24.508Z,96452.44
2023-05-12T06:24:50.753Z,96457.78
2023-05-12T06:27:17.019Z,96457.25
2023-05-12T06:29:43.298Z,96459.41
2023-05-12T06:32:09.613Z,96453.50
2023-05-12T06:34:35.993Z,96464.22
2023-05-12T06:37:02.262Z,96464.75
2023-05-12T06:39:28.510Z,96464.78
2023-05-12T06:41:54.788Z,96464.50
2023-05-12T06:44:21.053Z,96462.38
2023-05-12T06:46:47.370Z,96467.47
2023-05-12T06:49:13.728Z,96471.50
2023-05-12T06:51:39.990Z,96468.28
2023-05-12T06:54:06.250Z,96472.88
2023-05-12T06:56:32.490Z,96471.53
2023-05-12T06:58:58.752Z,96468.56
2023-05-12T07:01:25.048Z,96471.00
2023-05-12T07:03:51.323Z,96476.09
2023-05-12T07:06:17.687Z,96476.63
2023-05-12T07:08:43.937Z,96468.84
2023-05-12T07:11:10.200Z,96474.72
2023-05-12T07:13:36.472Z,96482.50
2023-05-12T07:16:02.807Z,96474.44
2023-05-12T07:18:29.191Z,96475.00
2023-05-12T07:20:55.552Z,96474.72
2023-05-12T07:23:21.808Z,96470.41
2023-05-12T07:25:48.089Z,96470.16
2023-05-12T07:28:14.352Z,96476.31
2023-05-12T07:30:40.618Z,96471.47
2023-05-12T07:33:06.967Z,96472.78
2023-05-12T07:35:33.266Z,96465.53
2023-05-12T07:37:59.595Z,96463.91
2023-05-12T07:40:25.926Z,96461.00
2023-05-12T07:42:52.230Z,96467.94
2023-05-12T07:45:18.658Z,96458.56
2023-05-12T07:47:45.205Z,96452.13
2023-05-12T07:50:11.462Z,96458.28
2023-05-12T07:52:37.725Z,96459.09
2023-05-12T07:55:03.993Z,96462.56
2023-05-12T07:57:30.269Z,96456.91
2023-05-12T07:59:56.557Z,96451.25
2023-05-12T08:02:22.882Z,96443.72
2023-05-12T08:04:49.190Z,96459.88
2023-05-12T08:07:15.437Z,96457.72
2023-05-12T08:09:41.689Z,96456.38
2023-05-12T08:12:07.974Z,96460.13
2023-05-12T08:14:34.237Z,96451.50
2023-05-12T08:17:00.543Z,96454.94
2023-05-12T08:19:26.858Z,96451.69
2023-05-12T08:21:53.127Z,96453.31
2023-05-12T08:24:19.408Z,96456.50
2023-05-12T08:26:45.683Z,96460.28
2023-05-12T08:29:11.949Z,96455.63
2023-05-12T08:31:38.299Z,96445.63
2023-05-12T08:34:10.349Z,96449.66
2023-05-12T08:36:37.279Z,96445.00
2023-05-12T08:39:03.554Z,96444.13
2023-05-12T08:41:29.820Z,96442.19
2023-05-12T08:43:56.140Z,96444.88
2023-05-12T08:46:22.499Z,96438.34
2023-05-12T08:48:48.782Z,96442.38
2023-05-12T08:51:15.061Z,96432.13
2023-05-12T08:53:41.320Z,96425.69
2023-05-12T08:58:41.551Z,96427.56
2023-05-12T09:01:08.659Z,96429.13
2023-05-12T09:03:35.234Z,96426.09
2023-05-12T09:06:01.544Z,96421.03
2023-05-12T09:08:27.825Z,96427.47
2023-05-12T09:10:54.101Z,96418.84
2023-05-12T09:13:20.368Z,96415.28
2023-05-12T09:15:46.641Z,96416.06
2023-05-12T09:18:12.900Z,96404.66
2023-05-12T09:20:39.183Z,96413.25
2023-05-12T09:23:05.442Z,96405.97
2023-05-12T09:25:31.756Z,96413.19
2023-05-12T09:27:58.043Z,96407.19
2023-05-12T09:30:24.329Z,96419.09
2023-05-12T09:32:50.648Z,96412.34
2023-05-12T09:35:16.993Z,96409.84
2023-05-12T09:37:43.259Z,96413.78
2023-05-12T09:40:09.550Z,96413.97
2023-05-12T09:42:35.821Z,96415.28
2023-05-12T09:45:02.125Z,96409.91
2023-05-12T09:47:28.486Z,96405.94
2023-05-12T09:49:54.795Z,96410.75
2023-05-12T09:52:21.066Z,96404.84
2023-05-12T09:54:47.323Z,96405.53
2023-05-12T09:57:13.590Z,96410.81
2023-05-12T09:59:41.600Z,96406.63
2023-05-12T10:02:09.478Z,96413.78
2023-05-12T10:04:35.856Z,96404.50
2023-05-12T10:07:02.268Z,96407.56
2023-05-12T10:09:28.540Z,96401.50
2023-05-12T10:11:54.868Z,96402.44
2023-05-12T10:14:21.156Z,96404.25
2023-05-12T10:16:47.468Z,96401.28
2023-05-12T10:19:13.768Z,96407.72
2023-05-12T10:21:40.201Z,96404.84
2023-05-12T10:24:06.509Z,96400.84
2023-05-12T10:26:32.817Z,96401.00
2023-05-12T10:28:59.104Z,96394.50
2023-05-12T10:31:25.488Z,96397.25
2023-05-12T10:33:53.241Z,96403.16
2023-05-12T10:36:19.512Z,96393.53
2023-05-12T10:38:45.801Z,96403.72
2023-05-12T10:41:12.090Z,96396.06
2023-05-12T10:43:41.622Z,96390.81
2023-05-12T10:46:08.147Z,96389.94
2023-05-12T10:48:34.438Z,96390.06
2023-05-12T10:51:00.759Z,96391.09
2023-05-12T10:53:32.634Z,96390.16
2023-05-12T10:56:08.197Z,96383.06
2023-05-12T10:58:34.972Z,96377.00
2023-05-12T11:01:02.116Z,96367.81
2023-05-12T11:03:30.211Z,96371.50
2023-05-12T11:05:57.488Z,96370.28
2023-05-12T11:08:24.963Z,96372.22
2023-05-12T11:10:51.458Z,96359.13
2023-05-12T11:13:17.816Z,96359.09
2023-05-12T11:15:44.152Z,96361.81
2023-05-12T11:18:10.494Z,96362.59
2023-05-12T11:20:36.781Z,96364.50
2023-05-12T11:23:03.138Z,96360.91
2023-05-12T11:25:29.536Z,96362.91
2023-05-12T11:27:55.822Z,96354.56
2023-05-12T11:30:22.084Z,96359.88
2023-05-12T11:32:48.350Z,96358.25
2023-05-12T11:35:14.675Z,96358.47
2023-05-12T11:37:40.962Z,96346.06
2023-05-12T11:40:07.245Z,96355.50
2023-05-12T11:42:33.498Z,96353.00
2023-05-12T11:44:59.762Z,96349.09
2023-05-12T11:47:26.105Z,96356.91
2023-05-12T11:49:52.597Z,96350.34
2023-05-12T11:52:18.848Z,96339.81
2023-05-12T11:54:45.114Z,96347.63
2023-05-12T11:57:11.402Z,96342.41
2023-05-12T11:59:37.672Z,96335.22
2023-05-12T12:02:04.059Z,96331.69
2023-05-12T12:04:30.440Z,96328.88
2023-05-12T12:06:59.554Z,96340.19
2023-05-12T12:09:25.818Z,96329.91
2023-05-12T12:11:52.074Z,96335.41
2023-05-12T12:14:18.326Z,96332.44
2023-05-12T12:16:44.573Z,96328.63
2023-05-12T12:19:10.939Z,96326.00
2023-05-12T12:21:37.301Z,96328.53
2023-05-12T12:24:03.580Z,96325.81
2023-05-12T12:26:29.852Z,96321.91
2023-05-12T12:28:56.103Z,96327.72
2023-05-12T12:31:22.375Z,96331.19
2023-05-12T12:33:48.654Z,96313.84
2023-05-12T12:36:14.926Z,96316.44
2023-05-12T12:38:41.182Z,96321.75
2023-05-12T12:41:07.467Z,96317.63
2023-05-12T12:43:33.715Z,96316.63
2023-05-12T12:46:00.008Z,96320.13
2023-05-12T12:48:26.290Z,96321.13
2023-05-12T12:50:52.541Z,96310.97
2023-05-12T12:53:18.794Z,96312.91
2023-05-12T12:55:45.065Z,96316.47
2023-05-12T12:58:11.357Z,96314.19
2023-05-12T13:00:37.687Z,96310.13
2023-05-12T13:03:04.061Z,96311.28
2023-05-12T13:05:30.422Z,96305.97
2023-05-12T13:07:56.851Z,96303.66
2023-05-12T13:10:23.145Z,96308.53
2023-05-12T13:12:49.426Z,96312.03
2023-05-12T13:15:16.966Z,96301.03
2023-05-12T13:17:44.247Z,96305.59
2023-05-12T13:20:10.538Z,96296.50
2023-05-12T13:22:36.798Z,96292.81
2023-05-12T13:25:04.322Z,96295.75
2023-05-12T13:27:32.237Z,96290.06
2023-05-12T13:29:58.480Z,96299.19
2023-05-12T13:32:24.808Z,96299.22
2023-05-12T13:34:51.129Z,96290.94
2023-05-12T13:37:17.402Z,96288.41
2023-05-12T13:39:43.655Z,96293.19
2023-05-12T13:42:09.950Z,96291.88
2023-05-12T13:44:36.221Z,96285.50
2023-05-12T13:47:02.497Z,96288.03
2023-05-12T13:49:29.005Z,96284.19
2023-05-12T13:51:55.275Z,96289.94
2023-05-12T13:54:21.557Z,96285.63
2023-05-12T13:56:47.807Z,96281.16
2023-05-12T13:59:14.102Z,96275.09
2023-05-12T14:01:40.402Z,96281.94
2023-05-12T14:04:06.695Z,96276.22
2023-05-12T14:06:32.977Z,96275.91
2023-05-12T14:08:59.249Z,96284.81
2023-05-12T14:11:25.515Z,96273.66
2023-05-12T14:13:51.784Z,96284.47
2023-05-12T14:16:18.170Z,96280.78
2023-05-12T14:18:44.572Z,96278.19
2023-05-12T14:21:10.958Z,96274.38
2023-05-12T14:23:37.218Z,96267.84
2023-05-12T14:26:03.522Z,96266.13
2023-05-12T14:28:29.854Z,96254.81
2023-05-12T14:30:56.243Z,96255.13
2023-05-12T14:33:22.529Z,96264.88
2023-05-12T14:35:59.317Z,96256.94
2023-05-12T14:38:29.806Z,96261.41
2023-05-12T14:40:56.097Z,96254.72
2023-05-12T14:43:22.381Z,96245.69
2023-05-12T14:45:48.695Z,96260.06
2023-05-12T14:48:15.016Z,96258.78
2023-05-12T14:50:41.283Z,96259.75
2023-05-12T14:53:07.538Z,96252.41
2023-05-12T14:55:33.784Z,96256.03
2023-05-12T14:58:00.052Z,96254.28
2023-05-12T15:00:28.154Z,96247.38
2023-05-12T15:02:54.514Z,96250.50
2023-05-12T15:05:22.985Z,96254.88
2023-05-12T15:07:53.887Z,96259.53
2023-05-12T15:10:20.179Z,96268.63
2023-05-12T15:12:46.486Z,96265.91
2023-05-12T15:15:12.749Z,96262.28
2023-05-12T15:17:39.074Z,96269.16
2023-05-12T15:20:05.401Z,96272.50
2023-05-12T15:22:31.713Z,96269.94
2023-05-12T15:24:58.000Z,96272.50
2023-05-12T15:27:24.276Z,96268.97
2023-05-12T15:29:50.528Z,96269.63
2023-05-12T15:32:16.785Z,96275.53
2023-05-12T15:34:43.040Z,96270.44
2023-05-12T15:37:09.382Z,96271.09
2023-05-12T15:39:35.645Z,96267.72
2023-05-12T15:42:01.957Z,96268.03
2023-05-12T15:44:28.228Z,96275.19
2023-05-12T15:46:54.565Z,96268.78
2023-05-12T15:49:20.901Z,96268.47
2023-05-12T15:51:47.185Z,96271.47
2023-05-12T15:54:13.450Z,96267.66
2023-05-12T15:56:39.753Z,96265.09
2023-05-12T15:59:06.035Z,96271.47
2023-05-12T16:01:32.438Z,96267.19
2023-05-12T16:03:58.897Z,96266.72
2023-05-12T16:06:25.248Z,96271.66
2023-05-12T16:08:51.556Z,96287.00
2023-05-12T16:11:17.827Z,96279.94
2023-05-12T16:13:44.206Z,96290.16
2023-05-12T16:16:10.515Z,96280.56
2023-05-12T16:18:36.888Z,96285.44
2023-05-12T16:21:03.223Z,96286.09
2023-05-12T16:23:29.532Z,96296.63
2023-05-12T16:25:55.890Z,96286.59
2023-05-12T16:28:22.185Z,96281.31
2023-05-12T16:30:48.442Z,96288.47
2023-05-12T16:33:14.888Z,96289.53
2023-05-12T16:35:41.188Z,96294.59
2023-05-12T16:38:07.436Z,96291.56
2023-05-12T16:40:33.735Z,96279.97
2023-05-12T16:43:00.015Z,96290.53
2023-05-12T16:45:26.275Z,96278.78
2023-05-12T16:47:52.582Z,96288.31
2023-05-12T16:50:19.011Z,96290.50
2023-05-12T16:52:45.313Z,96282.88
2023-05-12T16:55:11.961Z,96282.47
2023-05-12T16:57:39.086Z,96282.34
2023-05-12T17:00:06.722Z,96291.13
2023-05-12T17:02:33.144Z,96288.47
2023-05-12T17:04:59.472Z,96289.72
2023-05-12T17:07:25.714Z,96284.72
2023-05-12T17:09:51.988Z,96301.78
2023-05-12T17:12:18.273Z,96309.22
2023-05-12T17:14:50.204Z,96301.25
2023-05-12T17:17:22.300Z,96305.28
2023-05-12T17:19:48.646Z,96311.22
2023-05-12T17:22:14.980Z,96308.03
2023-05-12T17:24:41.244Z,96313.84
2023-05-12T17:27:07.516Z,96309.53
2023-05-12T17:29:33.811Z,96320.75
2023-05-12T17:32:00.131Z,96313.31
2023-05-12T17:34:26.428Z,96317.31
2023-05-12T17:36:52.746Z,96331.84
2023-05-12T17:39:19.030Z,96335.56
2023-05-12T17:41:45.266Z,96331.66
2023-05-12T17:44:11.517Z,96335.78
2023-05-12T17:46:37.926Z,96328.69
2023-05-12T17:49:04.244Z,96337.56
2023-05-12T17:51:30.518Z,96330.28
2023-05-12T17:53:56.855Z,96334.00
2023-05-12T17:56:23.143Z,96333.81
2023-05-12T17:58:49.408Z,96334.31
2023-05-12T18:01:15.862Z,96330.94
2023-05-12T18:03:42.274Z,96330.44
2023-05-12T18:06:08.609Z,96334.41
2023-05-12T18:08:34.874Z,96338.78
2023-05-12T18:11:01.170Z,96339.84
2023-05-12T18:13:27.511Z,96341.69
2023-05-12T18:15:53.787Z,96337.03
2023-05-12T18:18:20.064Z,96346.69
2023-05-12T18:20:46.339Z,96352.50
2023-05-12T18:23:12.610Z,96347.28
2023-05-12T18:25:38.860Z,96348.81
2023-05-12T18:28:05.128Z,96357.69
2023-05-12T18:30:31.417Z,96357.78
2023-05-12T18:32:57.765Z,96352.38
2023-05-12T18:35:24.340Z,96358.09
2023-05-12T18:37:50.774Z,96363.91
2023-05-12T18:40:17.035Z,96368.22
2023-05-12T18:42:43.317Z,96359.91
2023-05-12T18:45:09.605Z,96367.84
2023-05-12T18:47:35.892Z,96365.25
2023-05-12T18:50:02.198Z,96370.53
2023-05-12T18:52:28.469Z,96371.66
2023-05-12T18:54:54.766Z,96364.88
2023-05-12T18:57:21.038Z,96376.31
2023-05-12T18:59:47.302Z,96368.22
2023-05-12T19:02:13.582Z,96367.19
2023-05-12T19:04:39.903Z,96368.31
2023-05-12T19:07:06.245Z,96370.81
2023-05-12T19:09:32.519Z,96368.00
2023-05-12T19:11:58.901Z,96368.81
2023-05-12T19:14:25.166Z,96377.72
2023-05-12T19:16:51.451Z,96383.63
2023-05-12T19:19:17.767Z,96390.63
2023-05-12T19:21:44.089Z,96397.31
2023-05-12T19:24:10.352Z,96397.31
2023-05-12T19:26:36.688Z,96392.97
2023-05-12T19:29:02.989Z,96399.69
2023-05-12T19:31:29.279Z,96404.19
2023-05-12T19:33:55.581Z,96406.41
2023-05-12T19:36:21.851Z,96404.78
2023-05-12T19:38:48.103Z,96408.00
2023-05-12T19:41:14.374Z,96418.50
2023-05-12T19:43:40.668Z,96412.59
2023-05-12T19:46:07.040Z,96420.47
2023-05-12T19:48:33.336Z,96429.97
2023-05-12T19:50:59.722Z,96421.75
2023-05-12T19:53:25.987Z,96429.25
2023-05-12T19:55:52.245Z,96434.34
2023-05-12T19:58:18.556Z,96438.59
2023-05-12T20:00:44.813Z,96445.31
2023-05-12T20:03:11.193Z,96443.34
2023-05-12T20:05:37.780Z,96449.81
2023-05-12T20:08:04.132Z,96445.53
2023-05-12T20:10:30.513Z,96450.91
2023-05-12T20:12:56.794Z,96451.63
2023-05-12T20:15:23.194Z,96444.19
2023-05-12T20:17:49.575Z,96449.47
2023-05-12T20:20:15.932Z,96443.66
2023-05-12T20:22:42.186Z,96446.06
2023-05-12T20:25:08.469Z,96448.97
2023-05-12T20:27:34.759Z,96443.44
2023-05-12T20:30:01.108Z,96453.03
2023-05-12T20:32:27.589Z,96442.84
2023-05-12T20:34:53.854Z,96447.50
2023-05-12T20:37:20.179Z,96453.13
2023-05-12T20:39:46.535Z,96451.81
2023-05-12T20:42:12.892Z,96450.22
2023-05-12T20:44:39.164Z,96447.06
2023-05-12T20:47:05.545Z,96456.81
2023-05-12T20:49:31.869Z,96447.84
2023-05-12T20:51:58.159Z,96458.72
2023-05-12T20:54:24.507Z,96454.13
2023-05-12T20:56:50.797Z,96463.00
2023-05-12T20:59:17.075Z,96460.16
2023-05-12T21:01:43.442Z,96461.75
2023-05-12T21:04:09.845Z,96461.97
2023-05-12T21:06:36.240Z,96476.53
2023-05-12T21:09:02.667Z,96463.34
2023-05-12T21:11:28.984Z,96467.06
2023-05-12T21:13:55.235Z,96465.53
2023-05-12T21:16:21.580Z,96471.53
2023-05-12T21:18:48.046Z,96460.06
2023-05-12T21:21:14.728Z,96465.75
2023-05-12T21:23:41.067Z,96468.25
2023-05-12T21:26:07.414Z,96465.78
2023-05-12T21:28:33.706Z,96471.53
2023-05-12T21:30:59.966Z,96461.19
2023-05-12T21:33:26.231Z,96473.28
2023-05-12T21:35:52.692Z,96471.06
2023-05-12T21:38:19.086Z,96473.47
2023-05-12T21:40:45.338Z,96471.00
2023-05-12T21:43:11.593Z,96472.09
2023-05-12T21:45:37.945Z,96461.88
2023-05-12T21:48:04.311Z,96471.00
2023-05-12T21:50:30.658Z,96470.25
2023-05-12T21:52:56.950Z,96469.50
2023-05-12T21:55:23.241Z,96469.25
2023-05-12T21:57:49.506Z,96472.47
2023-05-12T22:00:15.792Z,96468.75
2023-05-12T22:02:42.207Z,96471.25
2023-05-12T22:05:08.504Z,96476.69
2023-05-12T22:07:34.765Z,96477.03
2023-05-12T22:10:01.045Z,96466.53
2023-05-12T22:12:27.304Z,96478.38
2023-05-12T22:14:53.566Z,96476.72
2023-05-12T22:17:19.835Z,96482.41
2023-05-12T22:19:46.118Z,96476.78
2023-05-12T22:22:12.388Z,96474.22
2023-05-12T22:24:38.636Z,96476.66
2023-05-12T22:27:05.921Z,96481.22
2023-05-12T22:29:32.188Z,96483.94
2023-05-12T22:31:58.490Z,96479.31
2023-05-12T22:34:24.748Z,96481.25
2023-05-12T22:36:51.010Z,96480.72
2023-05-12T22:39:17.274Z,96484.53
2023-05-12T22:41:43.548Z,96486.66
2023-05-12T22:44:09.798Z,96494.75
2023-05-12T22:46:36.085Z,96483.94
2023-05-12T22:49:02.335Z,96483.38
2023-05-12T22:51:28.599Z,96488.69
2023-05-12T22:53:54.876Z,96492.50
2023-05-12T22:56:21.122Z,96494.09
2023-05-12T22:58:47.376Z,96489.88
2023-05-12T23:01:13.693Z,96486.94
2023-05-12T23:03:40.001Z,96491.00
2023-05-12T23:06:06.321Z,96483.28
2023-05-12T23:08:32.607Z,96480.84
2023-05-12T23:10:58.888Z,96485.44
2023-05-12T23:13:25.181Z,96494.31
2023-05-12T23:15:51.452Z,96492.19
2023-05-12T23:18:17.776Z,96490.03
2023-05-12T23:20:44.036Z,96489.50
2023-05-12T23:23:10.274Z,96490.06
2023-05-12T23:25:36.539Z,96489.31
2023-05-12T23:28:02.778Z,96493.88
2023-05-12T23:30:29.037Z,96492.81
2023-05-12T23:32:55.433Z,96492.78
2023-05-12T23:35:21.774Z,96496.34
2023-05-12T23:37:48.047Z,96507.88
2023-05-12T23:40:14.324Z,96510.53
2023-05-12T23:42:40.575Z,96511.59
2023-05-12T23:45:06.850Z,96515.31
2023-05-12T23:47:33.154Z,96516.97
2023-05-12T23:49:59.454Z,96522.69
2023-05-12T23:52:25.697Z,96522.91
2023-05-12T23:54:51.960Z,96525.03
2023-05-12T23:57:18.268Z,96533.16
2023-05-12T23:59:44.562Z,96523.47
